sensor_id;sensor_type;location;lat;lon;timestamp;P1;durP1;ratioP1;P2;durP2;ratioP2
4575;SDS011;2300;51.874;8.430;2023-04-03T00:00:38;35.30;;;33.57;;
4575;SDS011;2300;51.874;8.430;2023-04-03T00:03:04;34.60;;;32.57;;
4575;SDS011;2300;51.874;8.430;2023-04-03T00:05:31;34.03;;;32.10;;
4575;SDS011;2300;51.874;8.430;2023-04-03T00:07:59;33.70;;;31.30;;
4575;SDS011;2300;51.874;8.430;2023-04-03T00:10:27;34.97;;;33.03;;
4575;SDS011;2300;51.874;8.430;2023-04-03T00:12:53;42.27;;;39.70;;
4575;SDS011;2300;51.874;8.430;2023-04-03T00:15:20;39.27;;;37.07;;
4575;SDS011;2300;51.874;8.430;2023-04-03T00:17:46;38.27;;;36.00;;
4575;SDS011;2300;51.874;8.430;2023-04-03T00:20:13;37.30;;;35.30;;
4575;SDS011;2300;51.874;8.430;2023-04-03T00:22:39;39.63;;;37.37;;
4575;SDS011;2300;51.874;8.430;2023-04-03T00:25:08;45.80;;;43.33;;
4575;SDS011;2300;51.874;8.430;2023-04-03T00:27:35;43.30;;;41.10;;
4575;SDS011;2300;51.874;8.430;2023-04-03T00:30:03;44.70;;;42.23;;
4575;SDS011;2300;51.874;8.430;2023-04-03T00:32:30;44.13;;;41.73;;
4575;SDS011;2300;51.874;8.430;2023-04-03T00:34:57;45.00;;;42.20;;
4575;SDS011;2300;51.874;8.430;2023-04-03T00:37:23;45.27;;;42.53;;
4575;SDS011;2300;51.874;8.430;2023-04-03T00:39:50;44.20;;;41.77;;
4575;SDS011;2300;51.874;8.430;2023-04-03T00:42:18;44.07;;;41.77;;
4575;SDS011;2300;51.874;8.430;2023-04-03T00:47:49;42.33;;;39.77;;
4575;SDS011;2300;51.874;8.430;2023-04-03T00:50:16;42.77;;;40.40;;
4575;SDS011;2300;51.874;8.430;2023-04-03T00:52:43;43.40;;;40.97;;
4575;SDS011;2300;51.874;8.430;2023-04-03T00:55:11;46.53;;;44.00;;
4575;SDS011;2300;51.874;8.430;2023-04-03T00:57:40;42.23;;;39.73;;
4575;SDS011;2300;51.874;8.430;2023-04-03T01:00:08;44.27;;;41.77;;
4575;SDS011;2300;51.874;8.430;2023-04-03T01:02:37;42.57;;;39.93;;
4575;SDS011;2300;51.874;8.430;2023-04-03T01:05:05;42.63;;;40.00;;
4575;SDS011;2300;51.874;8.430;2023-04-03T01:07:33;42.87;;;40.53;;
4575;SDS011;2300;51.874;8.430;2023-04-03T01:10:03;43.93;;;41.43;;
4575;SDS011;2300;51.874;8.430;2023-04-03T01:12:33;43.87;;;41.13;;
4575;SDS011;2300;51.874;8.430;2023-04-03T01:15:03;42.20;;;39.80;;
4575;SDS011;2300;51.874;8.430;2023-04-03T01:17:32;38.90;;;36.83;;
4575;SDS011;2300;51.874;8.430;2023-04-03T01:20:07;40.97;;;38.80;;
4575;SDS011;2300;51.874;8.430;2023-04-03T01:22:58;40.37;;;38.07;;
4575;SDS011;2300;51.874;8.430;2023-04-03T01:25:32;44.67;;;42.47;;
4575;SDS011;2300;51.874;8.430;2023-04-03T01:28:00;44.03;;;41.73;;
4575;SDS011;2300;51.874;8.430;2023-04-03T01:30:30;48.17;;;45.60;;
4575;SDS011;2300;51.874;8.430;2023-04-03T01:33:00;50.03;;;47.37;;
4575;SDS011;2300;51.874;8.430;2023-04-03T01:35:26;45.20;;;42.63;;
4575;SDS011;2300;51.874;8.430;2023-04-03T01:37:53;42.63;;;40.43;;
4575;SDS011;2300;51.874;8.430;2023-04-03T01:40:19;41.70;;;39.43;;
4575;SDS011;2300;51.874;8.430;2023-04-03T01:42:46;39.40;;;37.10;;
4575;SDS011;2300;51.874;8.430;2023-04-03T01:45:12;40.17;;;37.57;;
4575;SDS011;2300;51.874;8.430;2023-04-03T01:47:39;41.57;;;39.53;;
4575;SDS011;2300;51.874;8.430;2023-04-03T01:50:07;47.10;;;44.73;;
4575;SDS011;2300;51.874;8.430;2023-04-03T01:52:34;46.80;;;44.60;;
4575;SDS011;2300;51.874;8.430;2023-04-03T01:55:01;45.67;;;43.27;;
4575;SDS011;2300;51.874;8.430;2023-04-03T01:57:27;47.37;;;44.93;;
4575;SDS011;2300;51.874;8.430;2023-04-03T01:59:53;48.80;;;46.27;;
4575;SDS011;2300;51.874;8.430;2023-04-03T02:02:20;51.60;;;49.07;;
4575;SDS011;2300;51.874;8.430;2023-04-03T02:04:46;52.37;;;49.43;;
4575;SDS011;2300;51.874;8.430;2023-04-03T02:07:14;55.83;;;52.97;;
4575;SDS011;2300;51.874;8.430;2023-04-03T02:09:41;54.23;;;51.40;;
4575;SDS011;2300;51.874;8.430;2023-04-03T02:12:07;54.70;;;51.70;;
4575;SDS011;2300;51.874;8.430;2023-04-03T02:14:34;52.97;;;50.27;;
4575;SDS011;2300;51.874;8.430;2023-04-03T02:17:00;53.63;;;50.63;;
4575;SDS011;2300;51.874;8.430;2023-04-03T02:19:30;49.43;;;46.67;;
4575;SDS011;2300;51.874;8.430;2023-04-03T02:21:56;53.33;;;50.33;;
4575;SDS011;2300;51.874;8.430;2023-04-03T02:24:26;53.73;;;50.63;;
4575;SDS011;2300;51.874;8.430;2023-04-03T02:26:52;57.03;;;54.23;;
4575;SDS011;2300;51.874;8.430;2023-04-03T02:29:19;57.80;;;53.83;;
4575;SDS011;2300;51.874;8.430;2023-04-03T02:31:45;51.47;;;48.67;;
4575;SDS011;2300;51.874;8.430;2023-04-03T02:34:12;50.23;;;47.53;;
4575;SDS011;2300;51.874;8.430;2023-04-03T02:36:39;51.37;;;48.57;;
4575;SDS011;2300;51.874;8.430;2023-04-03T02:39:05;54.87;;;52.00;;
4575;SDS011;2300;51.874;8.430;2023-04-03T02:41:33;54.07;;;51.00;;
4575;SDS011;2300;51.874;8.430;2023-04-03T02:44:00;54.07;;;51.03;;
4575;SDS011;2300;51.874;8.430;2023-04-03T02:46:27;53.97;;;50.93;;
4575;SDS011;2300;51.874;8.430;2023-04-03T02:48:54;55.80;;;52.70;;
4575;SDS011;2300;51.874;8.430;2023-04-03T02:51:21;65.23;;;61.30;;
4575;SDS011;2300;51.874;8.430;2023-04-03T02:53:48;71.53;;;68.00;;
4575;SDS011;2300;51.874;8.430;2023-04-03T02:56:15;68.60;;;64.97;;
4575;SDS011;2300;51.874;8.430;2023-04-03T02:58:43;60.50;;;57.50;;
4575;SDS011;2300;51.874;8.430;2023-04-03T03:01:10;56.47;;;53.47;;
4575;SDS011;2300;51.874;8.430;2023-04-03T03:03:37;60.10;;;57.10;;
4575;SDS011;2300;51.874;8.430;2023-04-03T03:06:04;58.03;;;54.97;;
4575;SDS011;2300;51.874;8.430;2023-04-03T03:08:32;67.37;;;63.60;;
4575;SDS011;2300;51.874;8.430;2023-04-03T03:10:59;64.07;;;60.90;;
4575;SDS011;2300;51.874;8.430;2023-04-03T03:13:26;66.07;;;62.87;;
4575;SDS011;2300;51.874;8.430;2023-04-03T03:15:54;60.93;;;57.73;;
4575;SDS011;2300;51.874;8.430;2023-04-03T03:18:20;64.87;;;61.53;;
4575;SDS011;2300;51.874;8.430;2023-04-03T03:20:50;60.70;;;57.67;;
4575;SDS011;2300;51.874;8.430;2023-04-03T03:23:17;69.07;;;65.30;;
4575;SDS011;2300;51.874;8.430;2023-04-03T03:25:43;76.53;;;72.53;;
4575;SDS011;2300;51.874;8.430;2023-04-03T03:28:10;88.67;;;84.10;;
4575;SDS011;2300;51.874;8.430;2023-04-03T03:30:36;83.80;;;79.37;;
4575;SDS011;2300;51.874;8.430;2023-04-03T03:33:04;80.80;;;76.93;;
4575;SDS011;2300;51.874;8.430;2023-04-03T03:35:31;77.57;;;73.77;;
4575;SDS011;2300;51.874;8.430;2023-04-03T03:37:57;65.07;;;61.63;;
4575;SDS011;2300;51.874;8.430;2023-04-03T03:40:24;65.93;;;62.13;;
4575;SDS011;2300;51.874;8.430;2023-04-03T03:42:50;63.63;;;60.43;;
4575;SDS011;2300;51.874;8.430;2023-04-03T03:45:17;66.43;;;62.70;;
4575;SDS011;2300;51.874;8.430;2023-04-03T03:47:43;99.63;;;94.80;;
4575;SDS011;2300;51.874;8.430;2023-04-03T03:50:11;79.10;;;75.30;;
4575;SDS011;2300;51.874;8.430;2023-04-03T03:52:38;73.87;;;69.97;;
4575;SDS011;2300;51.874;8.430;2023-04-03T03:55:05;85.77;;;81.50;;
4575;SDS011;2300;51.874;8.430;2023-04-03T03:57:32;84.87;;;80.40;;
4575;SDS011;2300;51.874;8.430;2023-04-03T03:59:58;63.80;;;60.40;;
4575;SDS011;2300;51.874;8.430;2023-04-03T04:02:25;68.60;;;65.07;;
4575;SDS011;2300;51.874;8.430;2023-04-03T04:04:52;57.57;;;54.53;;
4575;SDS011;2300;51.874;8.430;2023-04-03T04:07:20;61.20;;;58.00;;
4575;SDS011;2300;51.874;8.430;2023-04-03T04:09:46;62.00;;;58.60;;
4575;SDS011;2300;51.874;8.430;2023-04-03T04:12:13;58.70;;;55.73;;
4575;SDS011;2300;51.874;8.430;2023-04-03T04:14:40;54.93;;;51.67;;
4575;SDS011;2300;51.874;8.430;2023-04-03T04:17:07;51.37;;;48.47;;
4575;SDS011;2300;51.874;8.430;2023-04-03T04:19:33;52.87;;;49.87;;
4575;SDS011;2300;51.874;8.430;2023-04-03T04:22:00;70.30;;;66.50;;
4575;SDS011;2300;51.874;8.430;2023-04-03T04:24:28;54.47;;;51.03;;
4575;SDS011;2300;51.874;8.430;2023-04-03T04:26:54;55.80;;;52.70;;
4575;SDS011;2300;51.874;8.430;2023-04-03T04:29:21;49.80;;;46.93;;
4575;SDS011;2300;51.874;8.430;2023-04-03T04:31:47;54.53;;;51.73;;
4575;SDS011;2300;51.874;8.430;2023-04-03T04:34:14;51.70;;;48.10;;
4575;SDS011;2300;51.874;8.430;2023-04-03T04:36:41;48.27;;;45.20;;
4575;SDS011;2300;51.874;8.430;2023-04-03T04:39:08;53.47;;;50.00;;
4575;SDS011;2300;51.874;8.430;2023-04-03T04:41:36;56.13;;;53.07;;
4575;SDS011;2300;51.874;8.430;2023-04-03T04:44:02;54.07;;;50.73;;
4575;SDS011;2300;51.874;8.430;2023-04-03T04:46:29;48.27;;;45.70;;
4575;SDS011;2300;51.874;8.430;2023-04-03T04:48:55;51.70;;;48.80;;
4575;SDS011;2300;51.874;8.430;2023-04-03T04:51:21;53.73;;;50.30;;
4575;SDS011;2300;51.874;8.430;2023-04-03T04:53:48;52.57;;;49.97;;
4575;SDS011;2300;51.874;8.430;2023-04-03T04:56:14;58.23;;;54.83;;
4575;SDS011;2300;51.874;8.430;2023-04-03T04:58:42;58.70;;;55.50;;
4575;SDS011;2300;51.874;8.430;2023-04-03T05:01:10;59.13;;;56.03;;
4575;SDS011;2300;51.874;8.430;2023-04-03T05:03:37;58.03;;;54.73;;
4575;SDS011;2300;51.874;8.430;2023-04-03T05:06:03;58.47;;;55.37;;
4575;SDS011;2300;51.874;8.430;2023-04-03T05:08:30;57.40;;;54.07;;
4575;SDS011;2300;51.874;8.430;2023-04-03T05:10:57;58.40;;;55.23;;
4575;SDS011;2300;51.874;8.430;2023-04-03T05:13:24;60.57;;;57.47;;
4575;SDS011;2300;51.874;8.430;2023-04-03T05:15:52;58.17;;;55.07;;
4575;SDS011;2300;51.874;8.430;2023-04-03T05:18:18;58.53;;;55.23;;
4575;SDS011;2300;51.874;8.430;2023-04-03T05:20:45;60.17;;;56.67;;
4575;SDS011;2300;51.874;8.430;2023-04-03T05:23:14;57.20;;;54.27;;
4575;SDS011;2300;51.874;8.430;2023-04-03T05:25:40;57.23;;;54.13;;
4575;SDS011;2300;51.874;8.430;2023-04-03T05:28:08;58.07;;;55.07;;
4575;SDS011;2300;51.874;8.430;2023-04-03T05:30:35;58.07;;;54.67;;
4575;SDS011;2300;51.874;8.430;2023-04-03T05:33:03;59.70;;;56.17;;
4575;SDS011;2300;51.874;8.430;2023-04-03T05:35:30;58.17;;;55.07;;
4575;SDS011;2300;51.874;8.430;2023-04-03T05:37:56;56.83;;;54.10;;
4575;SDS011;2300;51.874;8.430;2023-04-03T05:40:23;52.27;;;49.40;;
4575;SDS011;2300;51.874;8.430;2023-04-03T05:42:49;61.10;;;57.90;;
4575;SDS011;2300;51.874;8.430;2023-04-03T05:45:16;53.13;;;50.17;;
4575;SDS011;2300;51.874;8.430;2023-04-03T05:47:43;52.30;;;49.03;;
4575;SDS011;2300;51.874;8.430;2023-04-03T05:50:11;48.73;;;45.37;;
4575;SDS011;2300;51.874;8.430;2023-04-03T05:52:38;48.17;;;45.23;;
4575;SDS011;2300;51.874;8.430;2023-04-03T05:55:09;46.13;;;42.87;;
4575;SDS011;2300;51.874;8.430;2023-04-03T05:57:36;41.70;;;39.23;;
4575;SDS011;2300;51.874;8.430;2023-04-03T06:00:03;48.80;;;46.07;;
4575;SDS011;2300;51.874;8.430;2023-04-03T06:02:30;44.10;;;41.23;;
4575;SDS011;2300;51.874;8.430;2023-04-03T06:04:57;50.47;;;47.60;;
4575;SDS011;2300;51.874;8.430;2023-04-03T06:07:25;47.63;;;45.03;;
4575;SDS011;2300;51.874;8.430;2023-04-03T06:09:54;40.00;;;37.77;;
4575;SDS011;2300;51.874;8.430;2023-04-03T06:12:21;40.23;;;37.83;;
4575;SDS011;2300;51.874;8.430;2023-04-03T06:14:48;42.13;;;39.90;;
4575;SDS011;2300;51.874;8.430;2023-04-03T06:17:16;46.50;;;43.90;;
4575;SDS011;2300;51.874;8.430;2023-04-03T06:19:43;38.23;;;35.73;;
4575;SDS011;2300;51.874;8.430;2023-04-03T06:22:10;41.07;;;38.40;;
4575;SDS011;2300;51.874;8.430;2023-04-03T06:24:39;36.63;;;34.33;;
4575;SDS011;2300;51.874;8.430;2023-04-03T06:27:05;35.50;;;33.23;;
4575;SDS011;2300;51.874;8.430;2023-04-03T06:29:32;39.17;;;36.97;;
4575;SDS011;2300;51.874;8.430;2023-04-03T06:31:58;37.07;;;34.70;;
4575;SDS011;2300;51.874;8.430;2023-04-03T06:34:25;34.53;;;32.40;;
4575;SDS011;2300;51.874;8.430;2023-04-03T06:36:52;36.63;;;34.53;;
4575;SDS011;2300;51.874;8.430;2023-04-03T06:39:19;36.00;;;33.80;;
4575;SDS011;2300;51.874;8.430;2023-04-03T06:41:48;33.57;;;31.57;;
4575;SDS011;2300;51.874;8.430;2023-04-03T06:44:16;34.63;;;32.43;;
4575;SDS011;2300;51.874;8.430;2023-04-03T06:46:43;43.00;;;40.33;;
4575;SDS011;2300;51.874;8.430;2023-04-03T06:49:11;35.97;;;33.87;;
4575;SDS011;2300;51.874;8.430;2023-04-03T06:51:38;37.47;;;35.13;;
4575;SDS011;2300;51.874;8.430;2023-04-03T06:54:05;37.10;;;34.90;;
4575;SDS011;2300;51.874;8.430;2023-04-03T06:56:33;37.30;;;35.43;;
4575;SDS011;2300;51.874;8.430;2023-04-03T06:59:01;35.17;;;33.07;;
4575;SDS011;2300;51.874;8.430;2023-04-03T07:01:28;39.53;;;36.93;;
4575;SDS011;2300;51.874;8.430;2023-04-03T07:03:56;35.83;;;33.73;;
4575;SDS011;2300;51.874;8.430;2023-04-03T07:06:23;36.17;;;34.17;;
4575;SDS011;2300;51.874;8.430;2023-04-03T07:08:52;44.33;;;41.63;;
4575;SDS011;2300;51.874;8.430;2023-04-03T07:11:18;35.27;;;32.93;;
4575;SDS011;2300;51.874;8.430;2023-04-03T07:13:45;40.57;;;38.07;;
4575;SDS011;2300;51.874;8.430;2023-04-03T07:16:13;50.07;;;47.37;;
4575;SDS011;2300;51.874;8.430;2023-04-03T07:18:40;55.83;;;53.07;;
4575;SDS011;2300;51.874;8.430;2023-04-03T07:21:06;54.47;;;51.37;;
4575;SDS011;2300;51.874;8.430;2023-04-03T07:23:33;53.37;;;50.37;;
4575;SDS011;2300;51.874;8.430;2023-04-03T07:26:00;49.73;;;47.03;;
4575;SDS011;2300;51.874;8.430;2023-04-03T07:28:26;45.47;;;43.07;;
4575;SDS011;2300;51.874;8.430;2023-04-03T07:30:54;48.20;;;45.67;;
4575;SDS011;2300;51.874;8.430;2023-04-03T07:33:28;36.67;;;34.67;;
4575;SDS011;2300;51.874;8.430;2023-04-03T07:35:56;31.93;;;29.90;;
4575;SDS011;2300;51.874;8.430;2023-04-03T07:38:22;25.97;;;24.63;;
4575;SDS011;2300;51.874;8.430;2023-04-03T07:40:50;25.60;;;24.00;;
4575;SDS011;2300;51.874;8.430;2023-04-03T07:43:18;23.90;;;22.40;;
4575;SDS011;2300;51.874;8.430;2023-04-03T07:45:46;25.03;;;23.53;;
4575;SDS011;2300;51.874;8.430;2023-04-03T07:48:15;21.90;;;20.70;;
4575;SDS011;2300;51.874;8.430;2023-04-03T07:50:44;21.20;;;19.70;;
4575;SDS011;2300;51.874;8.430;2023-04-03T07:53:11;19.60;;;18.40;;
4575;SDS011;2300;51.874;8.430;2023-04-03T07:55:37;17.67;;;16.67;;
4575;SDS011;2300;51.874;8.430;2023-04-03T07:58:08;20.00;;;18.80;;
4575;SDS011;2300;51.874;8.430;2023-04-03T08:00:34;22.30;;;20.87;;
4575;SDS011;2300;51.874;8.430;2023-04-03T08:03:01;17.77;;;16.70;;
4575;SDS011;2300;51.874;8.430;2023-04-03T08:05:28;15.52;;;14.13;;
4575;SDS011;2300;51.874;8.430;2023-04-03T08:07:56;48.93;;;46.27;;
4575;SDS011;2300;51.874;8.430;2023-04-03T08:10:22;19.17;;;17.87;;
4575;SDS011;2300;51.874;8.430;2023-04-03T08:12:49;15.40;;;14.53;;
4575;SDS011;2300;51.874;8.430;2023-04-03T08:15:16;16.93;;;15.80;;
4575;SDS011;2300;51.874;8.430;2023-04-03T08:17:42;20.90;;;19.70;;
4575;SDS011;2300;51.874;8.430;2023-04-03T08:20:09;19.00;;;18.00;;
4575;SDS011;2300;51.874;8.430;2023-04-03T08:22:36;19.80;;;18.70;;
4575;SDS011;2300;51.874;8.430;2023-04-03T08:25:07;18.50;;;17.40;;
4575;SDS011;2300;51.874;8.430;2023-04-03T08:27:34;18.50;;;17.27;;
4575;SDS011;2300;51.874;8.430;2023-04-03T08:30:00;17.93;;;16.73;;
4575;SDS011;2300;51.874;8.430;2023-04-03T08:32:28;22.30;;;21.00;;
4575;SDS011;2300;51.874;8.430;2023-04-03T08:34:55;22.17;;;20.77;;
4575;SDS011;2300;51.874;8.430;2023-04-03T08:37:22;18.97;;;17.93;;
4575;SDS011;2300;51.874;8.430;2023-04-03T08:39:48;18.20;;;17.10;;
4575;SDS011;2300;51.874;8.430;2023-04-03T08:42:19;20.27;;;19.07;;
4575;SDS011;2300;51.874;8.430;2023-04-03T08:44:59;17.47;;;16.57;;
4575;SDS011;2300;51.874;8.430;2023-04-03T08:47:33;15.73;;;14.70;;
4575;SDS011;2300;51.874;8.430;2023-04-03T08:50:05;15.93;;;14.90;;
4575;SDS011;2300;51.874;8.430;2023-04-03T08:52:34;16.03;;;15.03;;
4575;SDS011;2300;51.874;8.430;2023-04-03T08:55:05;17.37;;;16.07;;
4575;SDS011;2300;51.874;8.430;2023-04-03T08:57:41;16.73;;;15.73;;
4575;SDS011;2300;51.874;8.430;2023-04-03T09:00:15;17.30;;;16.20;;
4575;SDS011;2300;51.874;8.430;2023-04-03T09:02:45;17.37;;;16.37;;
4575;SDS011;2300;51.874;8.430;2023-04-03T09:05:14;17.50;;;16.50;;
4575;SDS011;2300;51.874;8.430;2023-04-03T09:07:43;17.80;;;16.80;;
4575;SDS011;2300;51.874;8.430;2023-04-03T09:10:12;21.30;;;19.80;;
4575;SDS011;2300;51.874;8.430;2023-04-03T09:12:42;20.73;;;19.40;;
4575;SDS011;2300;51.874;8.430;2023-04-03T09:15:16;21.73;;;20.43;;
4575;SDS011;2300;51.874;8.430;2023-04-03T09:17:51;22.70;;;21.30;;
4575;SDS011;2300;51.874;8.430;2023-04-03T09:20:26;22.57;;;21.37;;
4575;SDS011;2300;51.874;8.430;2023-04-03T09:23:02;23.33;;;21.77;;
4575;SDS011;2300;51.874;8.430;2023-04-03T09:25:40;24.43;;;23.07;;
4575;SDS011;2300;51.874;8.430;2023-04-03T09:28:09;23.40;;;22.07;;
4575;SDS011;2300;51.874;8.430;2023-04-03T09:30:36;25.97;;;24.53;;
4575;SDS011;2300;51.874;8.430;2023-04-03T09:33:04;23.57;;;22.27;;
4575;SDS011;2300;51.874;8.430;2023-04-03T09:35:33;23.83;;;22.53;;
4575;SDS011;2300;51.874;8.430;2023-04-03T09:38:13;25.27;;;23.97;;
4575;SDS011;2300;51.874;8.430;2023-04-03T09:40:42;25.53;;;24.23;;
4575;SDS011;2300;51.874;8.430;2023-04-03T09:43:20;24.60;;;23.10;;
4575;SDS011;2300;51.874;8.430;2023-04-03T09:45:49;28.40;;;26.87;;
4575;SDS011;2300;51.874;8.430;2023-04-03T09:48:18;25.47;;;24.17;;
4575;SDS011;2300;51.874;8.430;2023-04-03T09:50:58;29.27;;;27.57;;
4575;SDS011;2300;51.874;8.430;2023-04-03T09:53:32;28.43;;;26.80;;
4575;SDS011;2300;51.874;8.430;2023-04-03T09:56:03;26.07;;;24.77;;
4575;SDS011;2300;51.874;8.430;2023-04-03T09:58:33;26.57;;;25.17;;
4575;SDS011;2300;51.874;8.430;2023-04-03T10:01:05;24.53;;;22.97;;
4575;SDS011;2300;51.874;8.430;2023-04-03T10:03:32;24.53;;;23.33;;
4575;SDS011;2300;51.874;8.430;2023-04-03T10:06:01;25.90;;;24.40;;
4575;SDS011;2300;51.874;8.430;2023-04-03T10:08:29;25.60;;;24.30;;
4575;SDS011;2300;51.874;8.430;2023-04-03T10:13:53;25.80;;;24.50;;
4575;SDS011;2300;51.874;8.430;2023-04-03T10:16:24;25.90;;;24.40;;
4575;SDS011;2300;51.874;8.430;2023-04-03T10:18:56;25.63;;;24.23;;
4575;SDS011;2300;51.874;8.430;2023-04-03T10:21:33;26.90;;;25.50;;
4575;SDS011;2300;51.874;8.430;2023-04-03T10:24:09;26.37;;;24.80;;
4575;SDS011;2300;51.874;8.430;2023-04-03T10:26:40;24.90;;;23.57;;
4575;SDS011;2300;51.874;8.430;2023-04-03T10:29:19;24.90;;;23.67;;
4575;SDS011;2300;51.874;8.430;2023-04-03T10:31:59;24.77;;;23.57;;
4575;SDS011;2300;51.874;8.430;2023-04-03T10:34:35;24.03;;;22.23;;
4575;SDS011;2300;51.874;8.430;2023-04-03T10:37:06;25.90;;;24.40;;
4575;SDS011;2300;51.874;8.430;2023-04-03T10:39:42;23.27;;;21.90;;
4575;SDS011;2300;51.874;8.430;2023-04-03T10:42:15;25.23;;;23.73;;
4575;SDS011;2300;51.874;8.430;2023-04-03T10:47:51;24.83;;;23.33;;
4575;SDS011;2300;51.874;8.430;2023-04-03T10:50:35;25.77;;;24.17;;
4575;SDS011;2300;51.874;8.430;2023-04-03T10:53:11;28.90;;;27.40;;
4575;SDS011;2300;51.874;8.430;2023-04-03T10:55:50;37.40;;;35.40;;
4575;SDS011;2300;51.874;8.430;2023-04-03T10:58:24;22.10;;;20.90;;
4575;SDS011;2300;51.874;8.430;2023-04-03T11:00:57;21.47;;;20.23;;
4575;SDS011;2300;51.874;8.430;2023-04-03T11:03:29;22.03;;;20.63;;
4575;SDS011;2300;51.874;8.430;2023-04-03T11:05:59;22.63;;;20.97;;
4575;SDS011;2300;51.874;8.430;2023-04-03T11:08:28;27.63;;;26.23;;
4575;SDS011;2300;51.874;8.430;2023-04-03T11:11:02;24.20;;;22.90;;
4575;SDS011;2300;51.874;8.430;2023-04-03T11:13:33;23.03;;;21.80;;
4575;SDS011;2300;51.874;8.430;2023-04-03T11:16:04;25.20;;;23.60;;
4575;SDS011;2300;51.874;8.430;2023-04-03T11:18:32;24.00;;;22.57;;
4575;SDS011;2300;51.874;8.430;2023-04-03T11:21:04;26.87;;;25.17;;
4575;SDS011;2300;51.874;8.430;2023-04-03T11:23:36;26.77;;;25.37;;
4575;SDS011;2300;51.874;8.430;2023-04-03T11:26:07;25.13;;;23.57;;
4575;SDS011;2300;51.874;8.430;2023-04-03T11:28:36;24.30;;;22.90;;
4575;SDS011;2300;51.874;8.430;2023-04-03T11:31:07;25.20;;;23.90;;
4575;SDS011;2300;51.874;8.430;2023-04-03T11:33:43;22.87;;;21.50;;
4575;SDS011;2300;51.874;8.430;2023-04-03T11:36:18;22.67;;;21.37;;
4575;SDS011;2300;51.874;8.430;2023-04-03T11:38:47;26.37;;;24.77;;
4575;SDS011;2300;51.874;8.430;2023-04-03T11:41:23;26.57;;;24.90;;
4575;SDS011;2300;51.874;8.430;2023-04-03T11:43:56;22.77;;;21.47;;
4575;SDS011;2300;51.874;8.430;2023-04-03T11:46:31;22.87;;;21.43;;
4575;SDS011;2300;51.874;8.430;2023-04-03T11:58:13;22.07;;;20.60;;
4575;SDS011;2300;51.874;8.430;2023-04-03T12:00:46;23.83;;;22.40;;
4575;SDS011;2300;51.874;8.430;2023-04-03T12:12:30;23.87;;;22.27;;
4575;SDS011;2300;51.874;8.430;2023-04-03T12:15:18;24.03;;;22.80;;
4575;SDS011;2300;51.874;8.430;2023-04-03T12:17:48;23.73;;;22.20;;
4575;SDS011;2300;51.874;8.430;2023-04-03T12:23:23;21.60;;;20.20;;
4575;SDS011;2300;51.874;8.430;2023-04-03T12:25:52;21.10;;;19.70;;
4575;SDS011;2300;51.874;8.430;2023-04-03T12:28:28;22.60;;;21.30;;
4575;SDS011;2300;51.874;8.430;2023-04-03T12:30:55;25.57;;;24.17;;
4575;SDS011;2300;51.874;8.430;2023-04-03T12:33:24;23.53;;;22.23;;
4575;SDS011;2300;51.874;8.430;2023-04-03T12:36:06;26.10;;;24.50;;
4575;SDS011;2300;51.874;8.430;2023-04-03T12:38:44;25.27;;;23.97;;
4575;SDS011;2300;51.874;8.430;2023-04-03T12:41:28;27.43;;;26.03;;
4575;SDS011;2300;51.874;8.430;2023-04-03T12:44:12;22.77;;;21.53;;
4575;SDS011;2300;51.874;8.430;2023-04-03T12:46:51;26.13;;;24.73;;
4575;SDS011;2300;51.874;8.430;2023-04-03T12:49:30;26.00;;;24.50;;
4575;SDS011;2300;51.874;8.430;2023-04-03T12:52:01;30.47;;;28.93;;
4575;SDS011;2300;51.874;8.430;2023-04-03T12:54:31;24.30;;;22.80;;
4575;SDS011;2300;51.874;8.430;2023-04-03T12:57:12;22.90;;;21.50;;
4575;SDS011;2300;51.874;8.430;2023-04-03T12:59:42;23.40;;;21.87;;
4575;SDS011;2300;51.874;8.430;2023-04-03T13:02:17;20.23;;;18.93;;
4575;SDS011;2300;51.874;8.430;2023-04-03T13:04:48;21.37;;;19.87;;
4575;SDS011;2300;51.874;8.430;2023-04-03T13:07:19;32.83;;;31.00;;
4575;SDS011;2300;51.874;8.430;2023-04-03T13:09:54;21.90;;;20.70;;
4575;SDS011;2300;51.874;8.430;2023-04-03T13:12:23;23.17;;;21.97;;
4575;SDS011;2300;51.874;8.430;2023-04-03T13:14:53;22.87;;;21.63;;
4575;SDS011;2300;51.874;8.430;2023-04-03T13:17:22;23.63;;;22.03;;
4575;SDS011;2300;51.874;8.430;2023-04-03T13:19:48;21.63;;;20.33;;
4575;SDS011;2300;51.874;8.430;2023-04-03T13:22:19;22.43;;;21.20;;
4575;SDS011;2300;51.874;8.430;2023-04-03T13:24:52;21.33;;;20.20;;
4575;SDS011;2300;51.874;8.430;2023-04-03T13:27:20;25.83;;;24.23;;
4575;SDS011;2300;51.874;8.430;2023-04-03T13:29:49;23.80;;;22.50;;
4575;SDS011;2300;51.874;8.430;2023-04-03T13:32:18;22.90;;;21.60;;
4575;SDS011;2300;51.874;8.430;2023-04-03T13:34:47;24.70;;;23.47;;
4575;SDS011;2300;51.874;8.430;2023-04-03T13:37:20;22.60;;;21.40;;
4575;SDS011;2300;51.874;8.430;2023-04-03T13:39:56;22.90;;;21.70;;
4575;SDS011;2300;51.874;8.430;2023-04-03T13:42:27;25.77;;;24.27;;
4575;SDS011;2300;51.874;8.430;2023-04-03T13:45:08;23.63;;;22.43;;
4575;SDS011;2300;51.874;8.430;2023-04-03T13:47:42;22.03;;;20.77;;
4575;SDS011;2300;51.874;8.430;2023-04-03T13:50:14;26.60;;;25.13;;
4575;SDS011;2300;51.874;8.430;2023-04-03T13:52:46;27.23;;;25.37;;
4575;SDS011;2300;51.874;8.430;2023-04-03T13:55:17;23.37;;;21.97;;
4575;SDS011;2300;51.874;8.430;2023-04-03T13:57:55;22.70;;;21.37;;
4575;SDS011;2300;51.874;8.430;2023-04-03T14:00:28;22.53;;;21.27;;
4575;SDS011;2300;51.874;8.430;2023-04-03T14:02:57;26.70;;;25.00;;
4575;SDS011;2300;51.874;8.430;2023-04-03T14:05:24;22.53;;;21.37;;
4575;SDS011;2300;51.874;8.430;2023-04-03T14:07:52;24.43;;;23.10;;
4575;SDS011;2300;51.874;8.430;2023-04-03T14:10:18;24.50;;;23.00;;
4575;SDS011;2300;51.874;8.430;2023-04-03T14:12:46;23.90;;;22.70;;
4575;SDS011;2300;51.874;8.430;2023-04-03T14:15:18;21.30;;;20.10;;
4575;SDS011;2300;51.874;8.430;2023-04-03T14:17:46;23.40;;;22.10;;
4575;SDS011;2300;51.874;8.430;2023-04-03T14:20:14;23.03;;;21.77;;
4575;SDS011;2300;51.874;8.430;2023-04-03T14:22:42;24.00;;;22.63;;
4575;SDS011;2300;51.874;8.430;2023-04-03T14:25:09;21.50;;;20.30;;
4575;SDS011;2300;51.874;8.430;2023-04-03T14:27:36;22.37;;;21.03;;
4575;SDS011;2300;51.874;8.430;2023-04-03T14:30:05;22.33;;;20.93;;
4575;SDS011;2300;51.874;8.430;2023-04-03T14:32:36;22.53;;;21.13;;
4575;SDS011;2300;51.874;8.430;2023-04-03T14:35:04;24.70;;;23.30;;
4575;SDS011;2300;51.874;8.430;2023-04-03T14:37:31;23.03;;;21.53;;
4575;SDS011;2300;51.874;8.430;2023-04-03T14:39:59;23.50;;;22.10;;
4575;SDS011;2300;51.874;8.430;2023-04-03T14:42:30;21.63;;;20.23;;
4575;SDS011;2300;51.874;8.430;2023-04-03T14:44:58;21.43;;;20.10;;
4575;SDS011;2300;51.874;8.430;2023-04-03T14:47:26;22.73;;;21.23;;
4575;SDS011;2300;51.874;8.430;2023-04-03T14:49:56;21.63;;;20.40;;
4575;SDS011;2300;51.874;8.430;2023-04-03T14:52:26;23.37;;;22.03;;
4575;SDS011;2300;51.874;8.430;2023-04-03T14:54:54;25.47;;;24.07;;
4575;SDS011;2300;51.874;8.430;2023-04-03T14:57:21;21.73;;;20.50;;
4575;SDS011;2300;51.874;8.430;2023-04-03T14:59:50;21.93;;;20.77;;
4575;SDS011;2300;51.874;8.430;2023-04-03T15:02:24;21.70;;;20.57;;
4575;SDS011;2300;51.874;8.430;2023-04-03T15:04:54;21.43;;;20.33;;
4575;SDS011;2300;51.874;8.430;2023-04-03T15:07:22;22.10;;;21.00;;
4575;SDS011;2300;51.874;8.430;2023-04-03T15:09:50;22.33;;;21.20;;
4575;SDS011;2300;51.874;8.430;2023-04-03T15:12:16;21.37;;;20.17;;
4575;SDS011;2300;51.874;8.430;2023-04-03T15:14:43;21.10;;;19.87;;
4575;SDS011;2300;51.874;8.430;2023-04-03T15:17:10;21.67;;;20.37;;
4575;SDS011;2300;51.874;8.430;2023-04-03T15:19:42;22.03;;;20.73;;
4575;SDS011;2300;51.874;8.430;2023-04-03T15:22:09;24.87;;;23.57;;
4575;SDS011;2300;51.874;8.430;2023-04-03T15:24:41;24.53;;;23.23;;
4575;SDS011;2300;51.874;8.430;2023-04-03T15:27:08;23.23;;;21.93;;
4575;SDS011;2300;51.874;8.430;2023-04-03T15:29:35;24.83;;;23.43;;